createdAt,value
2018-03-16T00:01:39.147Z,7.60
2018-03-16T00:04:07.409Z,7.37
2018-03-16T00:06:35.638Z,6.20
2018-03-16T00:09:05.256Z,6.87
2018-03-16T00:11:33.483Z,5.60
2018-03-16T00:14:01.678Z,4.87
2018-03-16T00:16:29.895Z,5.50
2018-03-16T00:18:58.060Z,5.80
2018-03-16T00:21:26.249Z,5.20
2018-03-16T00:23:54.399Z,3.80
2018-03-16T00:26:23.328Z,4.10
2018-03-16T00:28:51.588Z,4.17
2018-03-16T00:31:19.972Z,4.00
2018-03-16T00:33:48.141Z,4.00
2018-03-16T00:36:17.111Z,3.70
2018-03-16T00:38:45.259Z,4.23
2018-03-16T00:41:14.252Z,4.03
2018-03-16T00:43:42.474Z,3.50
2018-03-16T00:46:10.675Z,3.10
2018-03-16T00:48:38.857Z,2.67
2018-03-16T00:51:07.025Z,3.07
2018-03-16T00:53:35.213Z,3.47
2018-03-16T00:56:03.376Z,2.93
2018-03-16T00:58:31.554Z,2.97
2018-03-16T01:00:59.740Z,4.03
2018-03-16T01:03:27.916Z,4.20
2018-03-16T01:05:56.062Z,4.43
2018-03-16T01:08:24.214Z,4.40
2018-03-16T01:10:53.142Z,4.73
2018-03-16T01:13:21.415Z,4.50
2018-03-16T01:15:50.319Z,5.30
2018-03-16T01:18:18.470Z,4.80
2018-03-16T01:20:46.883Z,4.73
2018-03-16T01:23:15.085Z,4.23
2018-03-16T01:25:44.057Z,3.90
2018-03-16T01:28:12.219Z,4.97
2018-03-16T01:30:40.454Z,4.70
2018-03-16T01:33:08.624Z,3.43
2018-03-16T01:35:36.782Z,3.47
2018-03-16T01:38:04.989Z,2.90
2018-03-16T01:40:33.162Z,3.50
2018-03-16T01:43:01.310Z,3.27
2018-03-16T01:45:29.487Z,3.47
2018-03-16T01:47:58.413Z,3.30
2018-03-16T01:50:26.642Z,4.00
2018-03-16T01:53:06.526Z,4.00
2018-03-16T01:55:34.677Z,3.90
2018-03-16T01:58:02.870Z,4.10
2018-03-16T02:00:30.999Z,4.50
2018-03-16T02:02:59.922Z,3.93
2018-03-16T02:05:28.108Z,4.27
2018-03-16T02:07:56.262Z,3.93
2018-03-16T02:10:24.434Z,5.30
2018-03-16T02:12:52.665Z,5.20
2018-03-16T02:15:20.907Z,4.90
2018-03-16T02:17:49.148Z,5.23
2018-03-16T02:20:17.307Z,4.50
2018-03-16T02:22:46.232Z,4.67
2018-03-16T02:25:14.392Z,4.70
2018-03-16T02:27:43.279Z,5.20
2018-03-16T02:30:11.498Z,5.83
2018-03-16T02:32:40.438Z,5.93
2018-03-16T02:35:08.685Z,4.63
2018-03-16T02:37:36.832Z,4.63
2018-03-16T02:40:05.028Z,4.30
2018-03-16T02:42:33.223Z,4.90
2018-03-16T02:45:01.386Z,4.43
2018-03-16T02:47:29.642Z,4.10
2018-03-16T02:49:57.815Z,5.30
2018-03-16T02:52:25.997Z,4.60
2018-03-16T02:54:54.984Z,5.30
2018-03-16T02:57:23.256Z,4.97
2018-03-16T02:59:51.414Z,4.30
2018-03-16T03:02:19.551Z,3.83
2018-03-16T03:04:48.497Z,3.90
2018-03-16T03:07:16.651Z,3.70
2018-03-16T03:09:45.573Z,4.20
2018-03-16T03:12:13.756Z,4.03
2018-03-16T03:14:41.910Z,3.27
2018-03-16T03:17:10.098Z,4.20
2018-03-16T03:19:39.041Z,3.30
2018-03-16T03:22:07.258Z,3.83
2018-03-16T03:24:35.431Z,3.93
2018-03-16T03:27:03.583Z,3.60
2018-03-16T03:29:31.791Z,4.30
2018-03-16T03:31:59.922Z,3.83
2018-03-16T03:34:28.139Z,3.60
2018-03-16T03:36:57.087Z,2.73
2018-03-16T03:39:25.280Z,2.70
2018-03-16T03:41:53.521Z,2.20
2018-03-16T03:44:22.464Z,2.40
2018-03-16T03:46:50.666Z,2.60
2018-03-16T03:49:18.826Z,2.40
2018-03-16T03:51:47.031Z,2.73
2018-03-16T03:54:15.224Z,3.00
2018-03-16T03:56:43.414Z,2.80
2018-03-16T03:59:11.569Z,2.97
2018-03-16T04:01:39.803Z,2.50
2018-03-16T04:04:08.093Z,2.60
2018-03-16T04:06:36.426Z,2.70
2018-03-16T04:09:05.363Z,3.03
2018-03-16T04:11:33.554Z,2.30
2018-03-16T04:14:01.720Z,2.33
2018-03-16T04:16:29.928Z,2.20
2018-03-16T04:18:58.102Z,3.40
2018-03-16T04:21:27.179Z,2.33
2018-03-16T04:23:56.119Z,2.33
2018-03-16T04:26:24.371Z,2.60
2018-03-16T04:28:53.362Z,2.10
2018-03-16T04:31:21.524Z,2.33
2018-03-16T04:33:49.777Z,2.43
2018-03-16T04:36:17.932Z,2.77
2018-03-16T04:38:46.844Z,2.70
2018-03-16T04:41:15.784Z,2.10
2018-03-16T04:43:43.983Z,2.67
2018-03-16T04:46:12.139Z,2.43
2018-03-16T04:48:40.289Z,3.07
2018-03-16T04:51:08.494Z,2.30
2018-03-16T04:53:37.429Z,2.70
2018-03-16T04:56:05.644Z,2.47
2018-03-16T04:58:33.846Z,2.67
2018-03-16T05:01:02.026Z,3.37
2018-03-16T05:03:30.191Z,4.77
2018-03-16T05:05:58.358Z,4.50
2018-03-16T05:08:26.483Z,3.30
2018-03-16T05:10:54.623Z,2.87
2018-03-16T05:13:22.821Z,3.53
2018-03-16T05:15:50.966Z,2.83
2018-03-16T05:18:19.155Z,2.50
2018-03-16T05:20:48.141Z,3.80
2018-03-16T05:23:16.373Z,2.33
2018-03-16T05:25:44.501Z,1.80
2018-03-16T05:28:12.706Z,2.07
2018-03-16T05:30:40.947Z,4.20
2018-03-16T05:33:09.171Z,2.20
2018-03-16T05:35:37.652Z,2.53
2018-03-16T05:38:05.926Z,2.40
2018-03-16T05:40:34.083Z,1.97
2018-03-16T05:43:02.231Z,2.60
2018-03-16T05:45:30.412Z,2.33
2018-03-16T05:47:58.560Z,2.67
2018-03-16T05:50:26.783Z,2.97
2018-03-16T05:52:54.954Z,3.43
2018-03-16T05:55:23.115Z,3.13
2018-03-16T06:00:30.121Z,2.53
2018-03-16T06:02:58.295Z,2.87
2018-03-16T06:05:27.196Z,3.00
2018-03-16T06:07:56.119Z,2.73
2018-03-16T06:10:24.259Z,3.13
2018-03-16T06:12:52.436Z,3.70
2018-03-16T06:15:20.605Z,2.93
2018-03-16T06:17:48.773Z,2.33
2018-03-16T06:20:16.883Z,5.50
2018-03-16T06:22:45.072Z,2.67
2018-03-16T06:25:13.411Z,2.30
2018-03-16T06:27:42.406Z,2.40
2018-03-16T06:30:10.575Z,2.00
2018-03-16T06:32:38.788Z,2.17
2018-03-16T06:35:07.711Z,2.40
2018-03-16T06:37:35.890Z,3.23
2018-03-16T06:40:04.819Z,3.43
2018-03-16T06:42:33.077Z,2.63
2018-03-16T06:45:01.364Z,2.83
2018-03-16T06:47:30.216Z,2.40
2018-03-16T06:49:58.376Z,2.40
2018-03-16T06:52:26.514Z,2.67
2018-03-16T06:54:54.928Z,2.47
2018-03-16T06:57:23.856Z,2.40
2018-03-16T06:59:52.083Z,2.53
2018-03-16T07:02:20.295Z,3.03
2018-03-16T07:04:48.533Z,5.33
2018-03-16T07:07:16.682Z,2.63
2018-03-16T07:09:45.728Z,2.70
2018-03-16T07:12:13.973Z,3.23
2018-03-16T07:14:42.211Z,2.90
2018-03-16T07:17:10.358Z,2.47
2018-03-16T07:19:39.307Z,2.40
2018-03-16T07:22:07.542Z,2.40
2018-03-16T07:24:36.512Z,2.97
2018-03-16T07:27:04.751Z,3.20
2018-03-16T07:29:32.991Z,3.00
2018-03-16T07:32:01.231Z,2.73
2018-03-16T07:34:29.457Z,3.20
2018-03-16T07:36:57.611Z,2.00
2018-03-16T07:39:25.778Z,3.67
2018-03-16T07:41:54.698Z,5.30
2018-03-16T07:44:22.861Z,2.53
2018-03-16T07:46:51.086Z,2.63
2018-03-16T07:49:19.314Z,2.30
2018-03-16T07:51:47.596Z,1.77
2018-03-16T07:54:16.238Z,1.80
2018-03-16T07:56:44.400Z,1.80
2018-03-16T07:59:13.329Z,2.63
2018-03-16T08:01:41.527Z,1.90
2018-03-16T08:04:09.643Z,2.70
2018-03-16T08:06:37.803Z,2.00
2018-03-16T08:09:06.102Z,1.97
2018-03-16T08:11:34.281Z,2.67
2018-03-16T08:14:02.407Z,1.67
2018-03-16T08:16:30.611Z,1.97
2018-03-16T08:18:58.814Z,2.00
2018-03-16T08:21:27.810Z,2.30
2018-03-16T08:23:56.722Z,1.90
2018-03-16T08:26:25.678Z,1.20
2018-03-16T08:28:53.825Z,1.37
2018-03-16T08:31:22.008Z,1.20
2018-03-16T08:33:50.205Z,2.70
2018-03-16T08:36:18.373Z,1.57
2018-03-16T08:38:47.350Z,1.23
2018-03-16T08:41:15.547Z,1.40
2018-03-16T08:43:43.665Z,1.70
2018-03-16T08:46:11.837Z,3.07
2018-03-16T08:48:40.790Z,1.43
2018-03-16T08:51:09.005Z,1.70
2018-03-16T08:53:37.195Z,1.90
2018-03-16T08:56:05.791Z,2.13
2018-03-16T08:58:33.954Z,4.07
2018-03-16T09:01:02.164Z,4.40
2018-03-16T09:03:30.352Z,5.43
2018-03-16T09:05:58.607Z,4.40
2018-03-16T09:08:26.765Z,6.10
2018-03-16T09:10:54.977Z,5.13
2018-03-16T09:13:23.131Z,4.20
2018-03-16T09:15:51.294Z,3.47
2018-03-16T09:18:19.509Z,7.73
2018-03-16T09:20:47.701Z,4.67
2018-03-16T09:23:16.734Z,2.60
2018-03-16T09:25:44.923Z,4.77
2018-03-16T09:28:13.324Z,4.00
2018-03-16T09:30:41.431Z,6.53
2018-03-16T09:33:09.631Z,6.10
2018-03-16T09:35:38.565Z,4.23
2018-03-16T09:38:06.765Z,6.57
2018-03-16T09:40:35.007Z,4.87
2018-03-16T09:43:03.221Z,5.83
2018-03-16T09:45:31.463Z,6.60
2018-03-16T09:47:59.827Z,4.80
2018-03-16T09:50:28.126Z,6.97
2018-03-16T09:52:56.295Z,4.33
2018-03-16T09:55:47.354Z,5.67
2018-03-16T09:58:15.582Z,6.03
2018-03-16T10:00:44.608Z,3.03
2018-03-16T10:03:12.778Z,4.23
2018-03-16T10:05:41.723Z,5.83
2018-03-16T10:08:11.178Z,3.83
2018-03-16T10:10:40.140Z,3.33
2018-03-16T10:13:08.572Z,5.83
2018-03-16T10:15:37.273Z,4.37
2018-03-16T10:18:05.466Z,3.47
2018-03-16T10:20:33.609Z,5.83
2018-03-16T10:23:01.839Z,3.50
2018-03-16T10:25:30.757Z,5.57
2018-03-16T10:27:59.684Z,4.60
2018-03-16T10:30:27.874Z,2.43
2018-03-16T10:32:56.045Z,3.73
2018-03-16T10:35:24.238Z,5.73
2018-03-16T10:37:52.409Z,3.07
2018-03-16T10:40:20.654Z,4.68
2018-03-16T10:42:48.833Z,4.40
2018-03-16T10:45:17.068Z,4.53
2018-03-16T10:47:46.067Z,3.85
2018-03-16T10:50:15.000Z,4.47
2018-03-16T10:52:43.161Z,3.73
2018-03-16T10:55:12.106Z,5.10
2018-03-16T10:57:40.310Z,2.90
2018-03-16T11:00:08.467Z,5.47
2018-03-16T11:02:42.301Z,5.57
2018-03-16T11:05:28.213Z,5.27
2018-03-16T11:07:58.362Z,3.03
2018-03-16T11:10:26.588Z,3.87
2018-03-16T11:12:55.532Z,3.53
2018-03-16T11:15:23.763Z,4.43
2018-03-16T11:17:51.926Z,4.33
2018-03-16T11:20:20.152Z,3.63
2018-03-16T11:22:49.120Z,5.67
2018-03-16T11:25:17.521Z,2.93
2018-03-16T11:27:45.748Z,2.67
2018-03-16T11:30:13.926Z,3.57
2018-03-16T11:32:42.930Z,2.80
2018-03-16T11:35:11.846Z,3.13
2018-03-16T11:37:40.018Z,4.43
2018-03-16T11:40:08.984Z,2.90
2018-03-16T11:42:37.226Z,2.93
2018-03-16T11:45:05.398Z,2.50
2018-03-16T11:47:34.310Z,4.37
2018-03-16T11:50:02.515Z,3.40
2018-03-16T11:52:30.627Z,3.80
2018-03-16T11:54:58.791Z,4.27
2018-03-16T11:57:26.935Z,3.53
2018-03-16T11:59:55.118Z,3.63
2018-03-16T12:02:23.302Z,3.17
2018-03-16T12:04:51.553Z,3.67
2018-03-16T12:07:19.757Z,3.70
2018-03-16T12:09:48.028Z,3.00
2018-03-16T12:12:16.290Z,3.53
2018-03-16T12:14:45.230Z,1.97
2018-03-16T12:17:13.467Z,3.60
2018-03-16T12:19:42.410Z,4.53
2018-03-16T12:22:10.648Z,4.43
2018-03-16T12:24:38.829Z,3.50
2018-03-16T12:27:07.019Z,3.73
2018-03-16T12:29:35.245Z,4.33
2018-03-16T12:32:03.411Z,4.73
2018-03-16T12:34:32.351Z,4.13
2018-03-16T12:37:00.589Z,2.63
2018-03-16T12:39:29.581Z,2.87
2018-03-16T12:41:57.934Z,2.93
2018-03-16T12:44:26.135Z,3.20
2018-03-16T12:46:54.311Z,3.97
2018-03-16T12:49:22.496Z,3.13
2018-03-16T12:51:50.895Z,3.80
2018-03-16T12:54:19.128Z,3.92
2018-03-16T12:56:48.104Z,5.47
2018-03-16T12:59:16.304Z,4.53
2018-03-16T13:01:44.555Z,5.50
2018-03-16T13:04:12.757Z,5.17
2018-03-16T13:06:40.940Z,4.67
2018-03-16T13:09:09.110Z,3.20
2018-03-16T13:11:37.294Z,3.53
2018-03-16T13:14:05.650Z,5.80
2018-03-16T13:16:34.602Z,3.97
2018-03-16T13:19:02.720Z,4.57
2018-03-16T13:21:30.942Z,3.80
2018-03-16T13:23:59.127Z,6.00
2018-03-16T13:26:27.293Z,4.07
2018-03-16T13:28:55.518Z,4.47
2018-03-16T13:31:23.732Z,3.67
2018-03-16T13:33:52.017Z,2.93
2018-03-16T13:36:20.226Z,4.03
2018-03-16T13:38:48.424Z,2.70
2018-03-16T13:41:16.599Z,2.37
2018-03-16T13:43:44.772Z,3.10
2018-03-16T13:46:12.966Z,3.87
2018-03-16T13:48:41.125Z,2.30
2018-03-16T13:51:09.298Z,3.83
2018-03-16T13:53:37.609Z,3.57
2018-03-16T13:56:05.844Z,3.43
2018-03-16T13:58:33.992Z,4.60
2018-03-16T14:01:02.225Z,5.20
2018-03-16T14:03:30.614Z,2.97
2018-03-16T14:05:59.526Z,3.57
2018-03-16T14:08:27.918Z,4.67
2018-03-16T14:10:56.071Z,4.07
2018-03-16T14:13:24.296Z,3.67
2018-03-16T14:15:53.346Z,3.80
2018-03-16T14:18:21.531Z,3.30
2018-03-16T14:20:49.698Z,3.40
2018-03-16T14:23:17.854Z,4.40
2018-03-16T14:25:46.766Z,2.50
2018-03-16T14:28:14.945Z,3.40
2018-03-16T14:30:43.924Z,4.07
2018-03-16T14:33:12.176Z,3.40
2018-03-16T14:35:40.407Z,3.70
2018-03-16T14:38:08.690Z,4.43
2018-03-16T14:40:37.765Z,3.33
2018-03-16T14:43:05.959Z,4.70
2018-03-16T14:45:34.111Z,6.57
2018-03-16T14:48:02.242Z,3.80
2018-03-16T14:50:30.461Z,5.70
2018-03-16T14:52:59.374Z,7.67
2018-03-16T14:55:28.267Z,6.00
2018-03-16T14:57:57.208Z,3.43
2018-03-16T15:00:25.397Z,2.93
2018-03-16T15:02:53.591Z,3.47
2018-03-16T15:05:22.000Z,5.17
2018-03-16T15:07:50.235Z,5.50
2018-03-16T15:10:19.152Z,3.93
2018-03-16T15:12:47.331Z,3.20
2018-03-16T15:15:15.621Z,5.73
2018-03-16T15:17:43.928Z,3.53
2018-03-16T15:20:12.136Z,4.07
2018-03-16T15:22:40.322Z,5.00
2018-03-16T15:25:08.452Z,5.40
2018-03-16T15:27:37.341Z,3.77
2018-03-16T15:30:06.298Z,4.70
2018-03-16T15:32:34.500Z,5.30
2018-03-16T15:35:02.669Z,8.23
2018-03-16T15:37:31.170Z,3.87
2018-03-16T15:39:59.370Z,3.90
2018-03-16T15:42:27.541Z,5.33
2018-03-16T15:44:55.677Z,4.83
2018-03-16T15:47:24.590Z,3.67
2018-03-16T15:49:53.530Z,3.43
2018-03-16T15:52:21.741Z,3.97
2018-03-16T15:54:49.918Z,3.10
2018-03-16T15:57:18.067Z,4.13
2018-03-16T15:59:46.236Z,3.77
2018-03-16T16:02:15.173Z,4.73
2018-03-16T16:04:43.310Z,6.90
2018-03-16T16:07:11.515Z,5.20
2018-03-16T16:09:39.935Z,4.47
2018-03-16T16:12:08.071Z,5.30
2018-03-16T16:14:36.342Z,4.60
2018-03-16T16:17:04.572Z,5.50
2018-03-16T16:19:33.463Z,4.27
2018-03-16T16:22:02.360Z,5.30
2018-03-16T16:24:30.604Z,5.67
2018-03-16T16:26:58.724Z,6.23
2018-03-16T16:29:26.936Z,3.90
2018-03-16T16:31:55.105Z,5.37
2018-03-16T16:34:23.464Z,5.47
2018-03-16T16:36:51.571Z,3.63
2018-03-16T16:39:19.928Z,7.37
2018-03-16T16:41:48.011Z,2.20
2018-03-16T16:44:16.144Z,5.00
2018-03-16T16:46:45.060Z,4.90
2018-03-16T16:49:13.376Z,4.23
2018-03-16T16:51:41.858Z,2.80
2018-03-16T16:54:11.536Z,4.67
2018-03-16T16:56:39.663Z,5.43
2018-03-16T16:59:07.898Z,4.50
2018-03-16T17:01:36.083Z,6.13
2018-03-16T17:04:04.245Z,5.00
2018-03-16T17:06:32.467Z,5.83
2018-03-16T17:09:00.700Z,6.07
2018-03-16T17:11:29.848Z,4.57
2018-03-16T17:13:58.039Z,7.17
2018-03-16T17:16:26.993Z,3.43
2018-03-16T17:18:55.913Z,6.57
2018-03-16T17:21:24.104Z,5.57
2018-03-16T17:23:52.204Z,6.37
2018-03-16T17:26:20.280Z,6.63
2018-03-16T17:28:48.428Z,7.87
2018-03-16T17:31:17.369Z,6.10
2018-03-16T17:33:45.483Z,6.43
2018-03-16T17:36:13.686Z,8.97
2018-03-16T17:38:41.820Z,6.07
2018-03-16T17:41:10.289Z,7.93
2018-03-16T17:43:38.485Z,8.60
2018-03-16T17:46:07.399Z,6.80
2018-03-16T17:48:35.648Z,6.93
2018-03-16T17:51:03.829Z,4.30
2018-03-16T17:53:31.983Z,6.50
2018-03-16T17:56:00.128Z,9.83
2018-03-16T17:58:29.122Z,7.30
2018-03-16T18:00:57.437Z,14.80
2018-03-16T18:03:25.551Z,8.63
2018-03-16T18:05:53.670Z,11.40
2018-03-16T18:08:21.911Z,8.97
2018-03-16T18:10:50.409Z,7.47
2018-03-16T18:13:18.533Z,7.50
2018-03-16T18:15:46.804Z,8.63
2018-03-16T18:18:14.932Z,5.80
2018-03-16T18:20:43.830Z,6.97
2018-03-16T18:23:12.790Z,7.67
2018-03-16T18:25:40.940Z,9.30
2018-03-16T18:28:09.850Z,7.47
2018-03-16T18:30:37.977Z,10.87
2018-03-16T18:33:06.111Z,17.17
2018-03-16T18:35:35.002Z,8.20
2018-03-16T18:38:03.901Z,11.03
2018-03-16T18:40:32.774Z,7.03
2018-03-16T18:43:00.876Z,10.73
2018-03-16T18:45:28.985Z,9.43
2018-03-16T18:47:57.920Z,12.90
2018-03-16T18:50:26.095Z,10.17
2018-03-16T18:52:54.319Z,10.97
2018-03-16T18:55:22.456Z,12.60
2018-03-16T18:57:50.588Z,9.43
2018-03-16T19:00:18.714Z,11.77
2018-03-16T19:02:47.606Z,8.63
2018-03-16T19:05:15.785Z,9.63
2018-03-16T19:07:43.915Z,9.13
2018-03-16T19:10:12.048Z,6.53
2018-03-16T19:12:40.183Z,5.03
2018-03-16T19:15:09.098Z,6.67
2018-03-16T19:17:37.255Z,7.07
2018-03-16T19:20:06.162Z,6.13
2018-03-16T19:22:35.062Z,5.77
2018-03-16T19:25:03.988Z,7.00
2018-03-16T19:27:32.156Z,10.50
2018-03-16T19:30:01.061Z,7.40
2018-03-16T19:32:29.923Z,7.77
2018-03-16T19:34:58.070Z,6.33
2018-03-16T19:37:26.239Z,11.27
2018-03-16T19:39:55.136Z,7.63
2018-03-16T19:42:24.048Z,11.70
2018-03-16T19:44:52.196Z,8.73
2018-03-16T19:47:20.364Z,6.23
2018-03-16T19:49:48.564Z,7.17
2018-03-16T19:52:16.762Z,7.03
2018-03-16T19:54:44.885Z,8.93
2018-03-16T19:57:13.033Z,10.27
2018-03-16T19:59:41.956Z,10.50
2018-03-16T20:02:10.149Z,12.13
2018-03-16T20:04:39.026Z,11.87
2018-03-16T20:07:07.264Z,10.63
2018-03-16T20:09:35.385Z,11.90
2018-03-16T20:12:03.527Z,7.47
2018-03-16T20:14:31.664Z,7.87
2018-03-16T20:16:59.955Z,9.10
2018-03-16T20:19:28.195Z,7.80
2018-03-16T20:21:56.418Z,9.60
2018-03-16T20:24:24.528Z,9.20
2018-03-16T20:26:54.175Z,12.03
2018-03-16T20:29:23.057Z,9.00
2018-03-16T20:31:51.240Z,9.53
2018-03-16T20:34:19.314Z,8.43
2018-03-16T20:36:47.440Z,7.60
2018-03-16T20:39:16.359Z,8.83
2018-03-16T20:41:44.497Z,9.57
2018-03-16T20:44:12.628Z,5.70
2018-03-16T20:46:40.818Z,10.50
2018-03-16T20:49:08.947Z,10.07
2018-03-16T20:51:38.159Z,8.67
2018-03-16T20:54:06.302Z,7.90
2018-03-16T20:56:34.466Z,10.73
2018-03-16T20:59:03.340Z,9.43
2018-03-16T21:01:31.548Z,8.77
2018-03-16T21:03:59.695Z,9.83
2018-03-16T21:06:27.896Z,8.23
2018-03-16T21:08:56.120Z,9.63
2018-03-16T21:11:25.067Z,9.13
2018-03-16T21:13:53.238Z,11.57
2018-03-16T21:16:21.377Z,10.60
2018-03-16T21:18:50.350Z,7.57
2018-03-16T21:21:18.501Z,9.67
2018-03-16T21:23:46.668Z,9.13
2018-03-16T21:26:14.843Z,9.47
2018-03-16T21:28:42.943Z,9.80
2018-03-16T21:31:11.881Z,11.47
2018-03-16T21:33:40.001Z,12.20
2018-03-16T21:36:08.153Z,8.20
2018-03-16T21:38:36.307Z,9.37
2018-03-16T21:41:05.212Z,9.87
2018-03-16T21:43:33.358Z,10.80
2018-03-16T21:46:01.469Z,9.73
2018-03-16T21:48:29.590Z,15.23
2018-03-16T21:50:57.707Z,11.10
2018-03-16T21:53:25.934Z,12.77
2018-03-16T21:55:53.981Z,11.47
2018-03-16T21:58:22.088Z,12.37
2018-03-16T22:00:50.986Z,12.07
2018-03-16T22:03:19.201Z,12.57
2018-03-16T22:05:47.326Z,10.57
2018-03-16T22:08:15.466Z,9.50
2018-03-16T22:10:43.575Z,10.80
2018-03-16T22:13:11.685Z,11.20
2018-03-16T22:15:39.812Z,10.93
2018-03-16T22:18:08.776Z,9.77
2018-03-16T22:20:36.923Z,16.00
2018-03-16T22:23:05.095Z,17.33
2018-03-16T22:25:33.979Z,15.60
2018-03-16T22:28:02.141Z,13.37
2018-03-16T22:30:30.246Z,13.30
2018-03-16T22:32:58.436Z,12.57
2018-03-16T22:35:26.540Z,16.97
2018-03-16T22:37:54.691Z,13.63
2018-03-16T22:40:22.976Z,17.03
2018-03-16T22:42:51.113Z,17.40
2018-03-16T22:45:19.245Z,13.33
2018-03-16T22:47:47.362Z,16.43
2018-03-16T22:50:16.313Z,17.97
2018-03-16T22:52:44.423Z,17.67
2018-03-16T22:55:12.575Z,15.90
2018-03-16T22:57:40.718Z,20.67
2018-03-16T23:00:09.612Z,14.53
2018-03-16T23:02:37.743Z,12.77
2018-03-16T23:05:05.873Z,11.50
2018-03-16T23:07:34.029Z,19.37
2018-03-16T23:10:02.133Z,18.53
2018-03-16T23:12:30.251Z,13.47
2018-03-16T23:14:59.203Z,13.87
2018-03-16T23:17:27.387Z,13.10
2018-03-16T23:19:55.536Z,15.47
2018-03-16T23:22:24.513Z,11.50
2018-03-16T23:24:52.622Z,12.10
2018-03-16T23:27:21.513Z,17.63
2018-03-16T23:29:49.687Z,11.60
2018-03-16T23:32:17.881Z,14.83
2018-03-16T23:34:46.070Z,16.50
2018-03-16T23:37:14.229Z,14.90
2018-03-16T23:39:42.338Z,12.27
2018-03-16T23:42:10.451Z,14.70
2018-03-16T23:44:39.405Z,11.13
2018-03-16T23:47:07.620Z,13.70
2018-03-16T23:49:35.719Z,12.60
2018-03-16T23:52:04.646Z,9.53
2018-03-16T23:54:33.605Z,13.23
2018-03-16T23:57:01.706Z,12.73
2018-03-16T23:59:29.818Z,17.00
